Angostura, New Mexico
Current Conditions -  °F | °C
As of 2:55 AM on Thursday 23 Oct 2014 (Local Time) from KSKX Reporting Station
Clear Clear  
Wind Chill: 33°   Ceiling: Unl
Heat Index: 37°   Visibility: 10mi
Dew Point: 28°   Wind: 6mph
Humidity: 70%   Direction: 20°NNE
Pressure: 30.3"   Gusts: NA
Location:  36.1892°N, 105.688°W
Report Text: KSKX 230855Z AUTO 02005KT 10SM CLR 03/M02 A3030 RMK AO1 52007
Loading
Personal Weather Stations






























Interactive Weather Map New forecast layout! Learn more

10-Day Weather Forecast

Advertisements
Track Severe Weather on mobile